Aérodrome :
LOGIN :

S'inscrire | Disclaimer

   EN    FR    IT 

 










Légende :    VFR   VFR Marginal   IFR   IFR Intensif   IFR Très Intensif
Visi : 
Plafond : 
>= 8 km
>= 3000ft
5 à 8 km
1000 à 3000 ft
1500m à 5 km
500 à 1000 ft
800 à 1500m
200 à 500 ft
< 800m
< 200 ft
Symboles :   Orages  Brouillard  Fortes neiges  Fortes précipitations  Vent > 20 kt
SIGMETs :   Divers  Orages  Givrage  Turbulence  Onde Orograph.  Cendres Volcan.






- Altitude de l'aérodrome : 390 ft
- Code IATA : NQY


EGHQ - Newquay

DERNIER METAR :
  • 171220Z 32019KT 9999 BKN024 10/04 Q1021

METARs EXPIRÉS :
  • 171150Z 32021KT 9999 SCT024 09/03 Q1021
  • 171120Z 32019KT 9999 SCT024 10/05 Q1021
  • 171050Z 33018KT 9999 SCT024 09/04 Q1021
  • 171020Z 33017G29KT 300V360 9999 SCT024 09/04 Q1021
  • 170950Z 33018KT 9999 BKN024 09/03 Q1021
  • 170920Z 33018KT 9999 SCT025 09/03 Q1022
  • 170850Z 33015KT 9999 SCT024 09/04 Q1021
  • 170820Z 34015KT 9999 SCT024 09/03 Q1022
  • 170750Z 34014KT 9999 FEW027 BKN047 08/03 Q1022

TAF TAF EGHQ
Valide du 17 à 12h jusqu'au 17 à 21h UTC


171055Z 1712/1721 33012KT 9999 SCT025
PROB30
TEMPO 1712/1714 34015G25KT 9000 -SHRA
TEMPO 1716/1721 6000 RA SHRA BKN008
PROB30
TEMPO 1719/1721 BKN004



MET'MAP, la Météo Aéronautique d'un coup d'oeil ! - Copyright ORBIFLY Décembre 2007 - Disclaimer

ORBIFLY MET'MAP TEAM :

Programmation & Développement : Alexandra Zaïnal
Sur une idée originale de : Baudouin d'Aumeries
Soutien technique & logistique : Manuel Goepfert
Assistance : Marc-Olivier Méhu




SOURCES & CREDITS :

   NOAA